Venice-Lido Airport

LIPV · 威尼托, 意大利

METAR的历史 LIPV · Venice-Lido Airfield

下面你可以看到过去几天的METARs。 选择年份以浏览从2007年开始的旧METAR。

2024年6月18日

时间 代码 天气 温度 能见度 天花板 METAR/SPECI
16:20
V
26 °C 10 km+ - 150° 150° 7 kt METAR LIPZ 181420Z 15007KT CAVOK 26/20 Q1017 NOSIG
15:50
V
27 °C 10 km+ - 140° 140° 7 kt METAR LIPZ 181350Z 14007KT CAVOK 27/21 Q1018 NOSIG
15:20
V
26 °C 10 km+ - 150° 150° 8 kt METAR LIPZ 181320Z 15008KT CAVOK 26/19 Q1018 NOSIG
14:50
V
26 °C 10 km+ - 140° 140° 8 kt METAR LIPZ 181250Z 14008KT CAVOK 26/18 Q1018 NOSIG
14:20
V
27 °C 10 km+ - 150° 150° 7 kt METAR LIPZ 181220Z 15007KT CAVOK 27/14 Q1018 NOSIG
13:50
V
26 °C 10 km+ - 160° 160° 6 kt METAR LIPZ 181150Z 16006KT CAVOK 26/17 Q1018 NOSIG
13:20
V
26 °C 10 km+ - 160° 160° 6 kt METAR LIPZ 181120Z 16006KT 120V180 CAVOK 26/19 Q1018 NOSIG
12:50
V
26 °C 10 km+ - 150° 150° 5 kt METAR LIPZ 181050Z 15005KT 110V190 CAVOK 26/20 Q1018 NOSIG
12:20
V
26 °C 10 km+ - 130° 130° 5 kt METAR LIPZ 181020Z 13005KT 100V170 CAVOK 26/19 Q1018 NOSIG
11:50
V
26 °C 10 km+ - 150° 150° 5 kt METAR LIPZ 180950Z 15005KT CAVOK 26/20 Q1018 NOSIG
11:20
V
26 °C 10 km+ - 150° 150° 5 kt METAR LIPZ 180920Z 15005KT CAVOK 26/20 Q1018 NOSIG
10:50
V
25 °C 10 km+ - 110° 110° 4 kt METAR LIPZ 180850Z 11004KT 060V170 CAVOK 25/20 Q1018 NOSIG
10:20
V
25 °C 10 km+ - 080° 080° 4 kt METAR LIPZ 180820Z 08004KT 040V130 CAVOK 25/22 Q1018 NOSIG
09:50
V
25 °C 10 km+ - 070° 070° 4 kt METAR LIPZ 180750Z 07004KT 040V100 CAVOK 25/22 Q1018 NOSIG
09:20
V
24 °C 10 km+ - 070° 070° 3 kt METAR LIPZ 180720Z 07003KT 020V110 CAVOK 24/21 Q1018 NOSIG
08:50
V
23 °C 10 km+ - 030° 030° 3 kt METAR LIPZ 180650Z 03003KT 360V060 CAVOK 23/20 Q1018 NOSIG
08:20
V
23 °C 10 km+ - 020° 020° 4 kt METAR LIPZ 180620Z 02004KT 350V050 CAVOK 23/20 Q1018 NOSIG
07:50
V
22 °C 10 km+ - 030° 030° 4 kt METAR LIPZ 180550Z 03004KT CAVOK 22/19 Q1018 NOSIG
07:20
V
21 °C 10 km+ - 030° 030° 6 kt METAR LIPZ 180520Z 03006KT CAVOK 21/18 Q1017 NOSIG
06:50
V
21 °C 10 km+ - 010° 010° 4 kt METAR LIPZ 180450Z 01004KT CAVOK 21/18 Q1017 NOSIG
06:20
V
20 °C 10 km+ - 020° 020° 4 kt METAR LIPZ 180420Z 02004KT 340V040 CAVOK 20/18 Q1017 NOSIG
05:50
V
19 °C 10 km+ - 030° 030° 4 kt METAR LIPZ 180350Z 03004KT CAVOK 19/17 Q1017 NOSIG
05:20
V
19 °C 10 km+ - 050° 050° 4 kt METAR LIPZ 180320Z 05004KT CAVOK 19/17 Q1017 NOSIG
04:50
V
20 °C 10 km+ - 040° 040° 4 kt METAR LIPZ 180250Z 04004KT CAVOK 20/17 Q1017 NOSIG
04:20
V
20 °C 10 km+ - 040° 040° 5 kt METAR LIPZ 180220Z 04005KT CAVOK 20/18 Q1017 NOSIG
03:50
V
20 °C 10 km+ - 040° 040° 4 kt METAR LIPZ 180150Z 04004KT CAVOK 20/17 Q1017 NOSIG
03:20
V
20 °C 10 km+ - Var Var 1 kt METAR LIPZ 180120Z VRB01KT CAVOK 20/18 Q1017 NOSIG
02:50
V
21 °C 10 km+ - 010° 010° 2 kt METAR LIPZ 180050Z 01002KT CAVOK 21/18 Q1017 NOSIG
02:20
V
20 °C 10 km+ - Var Var 1 kt METAR LIPZ 180020Z VRB01KT CAVOK 20/18 Q1017 NOSIG
01:50
V
21 °C 10 km+ - 360° 360° 2 kt METAR LIPZ 172350Z 36002KT CAVOK 21/18 Q1017 NOSIG
01:20
V
21 °C 10 km+ - 010° 010° 4 kt METAR LIPZ 172320Z 01004KT CAVOK 21/18 Q1017 NOSIG
00:50
V
22 °C 10 km+ - 350° 350° 3 kt METAR LIPZ 172250Z 35003KT CAVOK 22/19 Q1016 NOSIG
00:20
V
23 °C 10 km+ - Var Var 4 kt METAR LIPZ 172220Z VRB04KT CAVOK 23/19 Q1016 NOSIG

2024年6月17日

时间 代码 天气 温度 能见度 天花板 METAR/SPECI
23:50
V
23 °C 10 km+ - 190° 190° 4 kt METAR LIPZ 172150Z 19004KT 160V220 CAVOK 23/20 Q1016 NOSIG
23:20
V
23 °C 10 km+ - 200° 200° 7 kt METAR LIPZ 172120Z 20007KT CAVOK 23/20 Q1016 NOSIG
22:50
V
24 °C 10 km+ - 200° 200° 6 kt METAR LIPZ 172050Z 20006KT CAVOK 24/18 Q1016 NOSIG
22:20
V
23 °C 10 km+ - 200° 200° 6 kt METAR LIPZ 172020Z 20006KT CAVOK 23/19 Q1016 NOSIG
21:50
V
23 °C 10 km+ - 190° 190° 5 kt METAR LIPZ 171950Z 19005KT CAVOK 23/19 Q1016 NOSIG
21:20
V
24 °C 10 km+ - 180° 180° 4 kt METAR LIPZ 171920Z 18004KT CAVOK 24/18 Q1016 NOSIG
20:50
V
24 °C 10 km+ - 170° 170° 4 kt METAR LIPZ 171850Z 17004KT CAVOK 24/18 Q1015 NOSIG
20:20
V
24 °C 10 km+ - 160° 160° 6 kt METAR LIPZ 171820Z 16006KT CAVOK 24/18 Q1015 NOSIG
19:50
V
25 °C 10 km+ - 150° 150° 6 kt METAR LIPZ 171750Z 15006KT CAVOK 25/18 Q1015 NOSIG
19:20
V
25 °C 10 km+ - 150° 150° 6 kt METAR LIPZ 171720Z 15006KT CAVOK 25/18 Q1015 NOSIG
18:50
V
25 °C 10 km+ - 150° 150° 7 kt METAR LIPZ 171650Z 15007KT CAVOK 25/17 Q1015 NOSIG
18:20
V
26 °C 10 km+ - 150° 150° 7 kt METAR LIPZ 171620Z 15007KT CAVOK 26/18 Q1015 NOSIG
17:50
V
25 °C 10 km+ - 150° 150° 9 kt METAR LIPZ 171550Z 15009KT CAVOK 25/17 Q1015 NOSIG
17:20
V
26 °C 10 km+ - 150° 150° 8 kt METAR LIPZ 171520Z 15008KT CAVOK 26/18 Q1015 NOSIG
16:50
V
26 °C 10 km+ - 160° 160° 6 kt METAR LIPZ 171450Z 16006KT CAVOK 26/18 Q1016 NOSIG
16:20
V
26 °C 10 km+ - 150° 150° 7 kt METAR LIPZ 171420Z 15007KT CAVOK 26/18 Q1016 NOSIG
15:50
V
26 °C 10 km+ - 150° 150° 7 kt METAR LIPZ 171350Z 15007KT CAVOK 26/18 Q1016 NOSIG
15:20
V
26 °C 10 km+ - 150° 150° 7 kt METAR LIPZ 171320Z 15007KT CAVOK 26/19 Q1016 NOSIG
14:50
V
26 °C 10 km+ - 150° 150° 7 kt METAR LIPZ 171250Z 15007KT 130V190 CAVOK 26/18 Q1016 NOSIG
14:20
V
26 °C 10 km+ - 150° 150° 6 kt METAR LIPZ 171220Z 15006KT CAVOK 26/17 Q1016 NOSIG
13:50
V
25 °C 10 km+ - 150° 150° 5 kt METAR LIPZ 171150Z 15005KT 120V180 CAVOK 25/17 Q1016 NOSIG
13:20
V
25 °C 10 km+ - 140° 140° 5 kt METAR LIPZ 171120Z 14005KT 100V170 9999 FEW020 25/19 Q1016 NOSIG
12:50
V
25 °C 10 km+ - 150° 150° 4 kt METAR LIPZ 171050Z 15004KT 120V200 9999 FEW020 25/18 Q1016 NOSIG
12:20
V
25 °C 10 km+ - 160° 160° 4 kt METAR LIPZ 171020Z 16004KT 110V190 9999 FEW020 25/19 Q1016 NOSIG
11:50
V
25 °C 10 km+ - 130° 130° 5 kt METAR LIPZ 170950Z 13005KT 100V170 9999 FEW020 25/18 Q1016 NOSIG
11:20
V
25 °C 10 km+ - 110° 110° 4 kt METAR LIPZ 170920Z 11004KT 050V180 9999 FEW020 25/19 Q1016 NOSIG
10:50
V
24 °C 10 km+ - 090° 090° 4 kt METAR LIPZ 170850Z 09004KT 040V150 9999 FEW020 24/18 Q1016 NOSIG
10:20
V
24 °C 10 km+ - 060° 060° 5 kt METAR LIPZ 170820Z 06005KT 030V100 CAVOK 24/18 Q1016 NOSIG
09:50
V
24 °C 10 km+ - 060° 060° 5 kt METAR LIPZ 170750Z 06005KT 020V090 CAVOK 24/19 Q1016 NOSIG
09:20
V
23 °C 10 km+ - 050° 050° 5 kt METAR LIPZ 170720Z 05005KT 010V090 CAVOK 23/18 Q1015 NOSIG
08:50
V
22 °C 10 km+ - 020° 020° 5 kt METAR LIPZ 170650Z 02005KT 340V040 CAVOK 22/18 Q1015 NOSIG
08:20
V
21 °C 10 km+ - 010° 010° 6 kt METAR LIPZ 170620Z 01006KT CAVOK 21/17 Q1015 NOSIG
07:50
V
20 °C 10 km+ - 020° 020° 7 kt METAR LIPZ 170550Z 02007KT CAVOK 20/17 Q1015 NOSIG
07:20
V
19 °C 10 km+ - 020° 020° 7 kt METAR LIPZ 170520Z 02007KT CAVOK 19/16 Q1014 NOSIG
06:50
V
18 °C 10 km+ - 010° 010° 7 kt METAR LIPZ 170450Z 01007KT CAVOK 18/17 Q1014 NOSIG
06:20
V
18 °C 10 km+ - 010° 010° 6 kt METAR LIPZ 170420Z 01006KT CAVOK 18/17 Q1014 NOSIG
05:50
V
18 °C 10 km+ - 350° 350° 5 kt METAR LIPZ 170350Z 35005KT CAVOK 18/17 Q1014 NOSIG
05:20
V
17 °C 10 km+ - 040° 040° 5 kt METAR LIPZ 170320Z 04005KT CAVOK 17/16 Q1013 NOSIG
04:50
V
18 °C 10 km+ - 040° 040° 6 kt METAR LIPZ 170250Z 04006KT CAVOK 18/17 Q1013 NOSIG
04:20
V
18 °C 10 km+ - 050° 050° 6 kt METAR LIPZ 170220Z 05006KT CAVOK 18/17 Q1013 NOSIG
03:50
V
18 °C 10 km+ - 040° 040° 6 kt METAR LIPZ 170150Z 04006KT CAVOK 18/17 Q1013 NOSIG
03:20
V
19 °C 10 km+ - 030° 030° 5 kt METAR LIPZ 170120Z 03005KT CAVOK 19/17 Q1013 NOSIG
02:50
V
19 °C 10 km+ - 040° 040° 6 kt METAR LIPZ 170050Z 04006KT CAVOK 19/17 Q1013 NOSIG
02:20
V
19 °C 10 km+ - 050° 050° 7 kt METAR LIPZ 170020Z 05007KT CAVOK 19/18 Q1013 NOSIG
01:50
V
19 °C 10 km+ - 040° 040° 6 kt METAR LIPZ 162350Z 04006KT CAVOK 19/17 Q1013 NOSIG
01:20
V
19 °C 10 km+ - 040° 040° 7 kt METAR LIPZ 162320Z 04007KT CAVOK 19/17 Q1013 NOSIG
00:50
V
19 °C 10 km+ - 050° 050° 6 kt METAR LIPZ 162250Z 05006KT CAVOK 19/18 Q1013 NOSIG
00:20
V
20 °C 10 km+ - 020° 020° 5 kt METAR LIPZ 162220Z 02005KT CAVOK 20/17 Q1013 NOSIG

2024年6月16日

时间 代码 天气 温度 能见度 天花板 METAR/SPECI
23:50
V
22 °C 10 km+ - 110° 110° 3 kt METAR LIPZ 162150Z 11003KT CAVOK 22/18 Q1013 NOSIG
23:20
V
22 °C 10 km+ - 120° 120° 3 kt METAR LIPZ 162120Z 12003KT 090V160 CAVOK 22/18 Q1013 NOSIG
22:50
V
22 °C 10 km+ - 130° 130° 5 kt METAR LIPZ 162050Z 13005KT CAVOK 22/18 Q1013 NOSIG
22:20
V
22 °C 10 km+ - 110° 110° 4 kt METAR LIPZ 162020Z 11004KT CAVOK 22/18 Q1012 NOSIG
21:50
V
22 °C 10 km+ - 090° 090° 4 kt METAR LIPZ 161950Z 09004KT CAVOK 22/18 Q1012 NOSIG
21:20
V
22 °C 10 km+ - 070° 070° 4 kt METAR LIPZ 161920Z 07004KT 020V090 CAVOK 22/18 Q1012 NOSIG
20:50
V
23 °C 10 km+ - Var Var 2 kt METAR LIPZ 161850Z VRB02KT CAVOK 23/18 Q1011 NOSIG
20:20
V
23 °C 10 km+ - 160° 160° 7 kt METAR LIPZ 161820Z 16007KT CAVOK 23/18 Q1011 NOSIG
19:50
V
24 °C 10 km+ - 160° 160° 7 kt METAR LIPZ 161750Z 16007KT CAVOK 24/17 Q1010 NOSIG
19:20
V
24 °C 10 km+ - 170° 170° 6 kt METAR LIPZ 161720Z 17006KT CAVOK 24/18 Q1010 NOSIG
18:50
V
24 °C 10 km+ - 150° 150° 7 kt METAR LIPZ 161650Z 15007KT 9999 FEW025 24/17 Q1010 NOSIG
18:20
V
24 °C 10 km+ - 150° 150° 9 kt METAR LIPZ 161620Z 15009KT 9999 FEW025 24/18 Q1010 NOSIG
17:50
V
24 °C 10 km+ - 150° 150° 10 kt METAR LIPZ 161550Z 15010KT 9999 FEW020 24/18 Q1010 NOSIG
17:20
V
24 °C 10 km+ - 150° 150° 10 kt METAR LIPZ 161520Z 15010KT 9999 FEW020 24/19 Q1010 NOSIG
16:50
V
25 °C 10 km+ - 150° 150° 8 kt METAR LIPZ 161450Z 15008KT CAVOK 25/19 Q1010 NOSIG
16:20
V
25 °C 10 km+ - 150° 150° 10 kt METAR LIPZ 161420Z 15010KT 9999 FEW025 25/19 Q1010 NOSIG
15:50
V
26 °C 10 km+ - 170° 170° 7 kt METAR LIPZ 161350Z 17007KT 9999 FEW025 26/20 Q1010 NOSIG
15:20
V
25 °C 10 km+ - 160° 160° 6 kt METAR LIPZ 161320Z 16006KT 120V200 9999 FEW025 25/19 Q1010 NOSIG
14:50
V
26 °C 10 km+ - 190° 190° 5 kt METAR LIPZ 161250Z 19005KT 140V210 CAVOK 26/18 Q1010 NOSIG
14:20
V
25 °C 10 km+ - 230° 230° 6 kt METAR LIPZ 161220Z 23006KT 9999 FEW030 25/18 Q1010 NOSIG
13:50
V
25 °C 10 km+ - 160° 160° 4 kt METAR LIPZ 161150Z 16004KT 090V230 9999 FEW030 25/18 Q1010 NOSIG
13:20
V
24 °C 10 km+ - 170° 170° 4 kt METAR LIPZ 161120Z 17004KT 140V200 9999 FEW030 24/18 Q1010 NOSIG
12:50
V
24 °C 10 km+ - 180° 180° 5 kt METAR LIPZ 161050Z 18005KT 140V200 9999 FEW020 24/18 Q1010 NOSIG
12:20
V
24 °C 10 km+ - 180° 180° 5 kt METAR LIPZ 161020Z 18005KT 150V220 9999 FEW020 24/19 Q1011 NOSIG
11:50
V
23 °C 10 km+ - 190° 190° 6 kt METAR LIPZ 160950Z 19006KT 9999 FEW020 23/18 Q1011 NOSIG
11:20
V
23 °C 10 km+ - 180° 180° 5 kt METAR LIPZ 160920Z 18005KT 150V210 9999 FEW025 23/18 Q1011 NOSIG
10:50
V
22 °C 10 km+ - 190° 190° 5 kt METAR LIPZ 160850Z 19005KT 9999 FEW030 22/17 Q1010 NOSIG
10:20
V
23 °C 10 km+ - Var Var 3 kt METAR LIPZ 160820Z VRB03KT 9999 FEW040 23/17 Q1010 NOSIG
09:50
V
22 °C 10 km+ - 040° 040° 3 kt METAR LIPZ 160750Z 04003KT 330V100 9999 FEW040 22/17 Q1010 NOSIG
09:20
V
21 °C 10 km+ - 350° 350° 4 kt METAR LIPZ 160720Z 35004KT 310V030 CAVOK 21/17 Q1010 NOSIG
08:50
V
21 °C 10 km+ - 340° 340° 6 kt METAR LIPZ 160650Z 34006KT CAVOK 21/17 Q1010 NOSIG
08:20
V
21 °C 10 km+ - 350° 350° 7 kt METAR LIPZ 160620Z 35007KT CAVOK 21/16 Q1010 NOSIG
07:50
V
20 °C 10 km+ - 010° 010° 6 kt METAR LIPZ 160550Z 01006KT CAVOK 20/17 Q1010 NOSIG
报告变更